Airfield :
LOGIN :

Register | Disclaimer

   EN    FR    IT 

 










Legend :    VFR   Marginal VFR   IFR   Intensive IFR   Very Intensive IFR
Visi :
Ceiling :
>= 8 km
>= 3000ft
5 to 8 km
1000 to 3000 ft
1500m to 5 km
500 to 1000 ft
800 to 1500m
200 to 500 ft
< 800m
< 200 ft
Symbols :   Thunderstorms  Fog  Heavy snow  Heavy precipitations  Wind > 20 kt
SIGMETs :     Misc.  Thunderstorms  Icing  Turbulence  Mountain Waves  Volcanic Ashes







- Airport Elevation : 992 ft


LIRV - Roma Viterbo Air Force Base (military)

CURRENT METAR :
  • 221355Z 08008KT 7000 -RA FEW010 SCT015 BKN027 06/02 Q1001

EXPIRED METARs :
  • 221255Z 06009KT 9999 FEW012 SCT030 06/02 Q1001
  • 221155Z 06011KT 9999 FEW015 SCT040 05/01 Q1001

TAF TAF LIRV
Valid from the 22 at 15:00 until the 23 at 00:00 UTC


221400Z 2215/2224 07010KT 7000 RA FEW015 BKN030
TEMPO 2215/2218 5000 SHRA BR FEW020CB BKN025
No reported NOTAMs for that airfield.
1 SIGMET reported for the Roma FIR (LIRR) :
 
Embedded thunderstorms
LIRR SIGMET 4 VALID 221301/221600 LIIB
LIRR ROMA FIR EMBD TS FCST WI N3742 E01312 - N3629 E01319 - N3631 E01629 - N3807 E01623 - N3742 E01312 TOP ABV FL200 MOV E NC=



MET'MAP, your aeronautical weather chart ! - Copyright ORBIFLY December 2007 - Disclaimer

ORBIFLY MET'MAP TEAM :

Programming & Development : Alexandra Zaïnal
Concept & Development : Baudouin d'Aumeries
Co-Development & Prog : Marc-Olivier Méhu
Technical & hardware support : Manuel Goepfert

Contact : metmap@orbifly.com




SOURCES & CREDITS :

   NOAA